Time;durP1;ratioP1;P1;durP2;ratioP2;P2;SDS_P1;SDS_P2;PMS_P1;PMS_P2;Temp;Humidity;BMP_temperature;BMP_pressure;BME280_temperature;BME280_humidity;BME280_pressure;Samples;Min_cycle;Max_cycle;Signal;HPM_P1;HPM_P2
2021/09/25 00:00:39;;;;;;;;;;;;;;;21.76;84.53;101307.06;7285240;19;152586;-52
2021/09/25 00:03:06;;;;;;;;;;;;;;;21.76;84.51;101309.88;7284891;19;152800;-52
2021/09/25 00:05:37;;;;;;;;;;;;;;;21.76;84.42;101303.44;7285992;19;151766;-53
2021/09/25 00:08:04;;;;;;;;;;;;;;;21.79;84.86;101300.00;7289028;19;152605;-53
2021/09/25 00:10:31;;;;;;;;;;;;;;;21.78;84.97;101301.16;7287387;19;153215;-53
2021/09/25 00:12:58;;;;;;;;;;;;;;;21.80;84.97;101305.34;7285183;19;152049;-53
2021/09/25 00:15:29;;;;;;;;;;;;;;;21.78;84.77;101306.78;7287946;19;153088;-53
2021/09/25 00:17:56;;;;;;;;;;;;;;;21.74;85.17;101301.78;7287517;19;153481;-53
2021/09/25 00:20:25;;;;;;;;;;;;;;;21.78;84.99;101307.59;7294991;19;151663;-53
2021/09/25 00:22:52;;;;;;;;;;;;;;;21.76;84.84;101301.44;7285291;19;153287;-53
2021/09/25 00:25:19;;;;;;;;;;;;;;;21.77;84.99;101302.28;7287975;19;151888;-53
2021/09/25 00:27:46;;;;;;;;;;;;;;;21.76;85.16;101309.06;7285963;19;153699;-53
2021/09/25 00:30:14;;;;;;;;;;;;;;;21.79;85.10;101300.00;7286378;19;152238;-53
2021/09/25 00:32:40;;;;;;;;;;;;;;;21.81;85.09;101300.53;7285269;19;151895;-54
2021/09/25 00:35:08;;;;;;;;;;;;;;;21.81;84.78;101303.34;7286981;19;152012;-54
2021/09/25 00:37:36;;;;;;;;;;;;;;;21.81;85.10;101306.16;7284081;19;152548;-53
2021/09/25 00:40:03;;;;;;;;;;;;;;;21.81;85.02;101301.34;7295045;19;151532;-54
2021/09/25 00:42:30;;;;;;;;;;;;;;;21.80;84.92;101307.31;7287101;19;153692;-53
2021/09/25 00:44:57;;;;;;;;;;;;;;;21.79;85.27;101300.84;7285498;19;152359;-53
2021/09/25 00:47:24;;;;;;;;;;;;;;;21.82;85.45;101310.63;7284376;19;151984;-53
2021/09/25 00:49:50;;;;;;;;;;;;;;;21.81;85.50;101304.16;7284049;19;152027;-53
2021/09/25 00:52:17;;;;;;;;;;;;;;;21.84;85.73;101311.19;7285532;19;151695;-53
2021/09/25 00:54:44;;;;;;;;;;;;;;;21.82;85.55;101307.81;7284654;19;153216;-53
2021/09/25 00:57:11;;;;;;;;;;;;;;;21.83;86.13;101298.25;7284919;19;153973;-54
2021/09/25 00:59:38;;;;;;;;;;;;;;;21.83;85.96;101295.44;7281483;19;152169;-53
2021/09/25 01:02:05;;;;;;;;;;;;;;;21.86;86.06;101300.44;7290026;19;152734;-53
2021/09/25 01:04:33;;;;;;;;;;;;;;;21.83;86.34;101295.44;7284966;19;151598;-54
2021/09/25 01:07:00;;;;;;;;;;;;;;;21.83;86.84;101298.25;7285269;19;153668;-53
2021/09/25 01:09:26;;;;;;;;;;;;;;;21.82;86.74;101294.59;7285311;19;153910;-53
2021/09/25 01:11:53;;;;;;;;;;;;;;;21.86;87.04;101294.81;7287034;19;151996;-53
2021/09/25 01:14:20;;;;;;;;;;;;;;;21.86;86.69;101289.19;7283238;19;153338;-53
2021/09/25 01:16:47;;;;;;;;;;;;;;;21.88;87.05;101295.34;7284667;19;152617;-51
2021/09/25 01:19:14;;;;;;;;;;;;;;;21.86;86.98;101300.44;7286745;19;152184;-51
2021/09/25 01:21:41;;;;;;;;;;;;;;;21.89;87.09;101302.66;7284017;19;151983;-51
2021/09/25 01:24:08;;;;;;;;;;;;;;;21.95;87.22;101301.41;7290716;19;153246;-51
2021/09/25 01:26:35;;;;;;;;;;;;;;;21.88;87.21;101299.00;7282277;19;152361;-53
2021/09/25 01:29:02;;;;;;;;;;;;;;;21.86;87.43;101297.63;7285401;19;153930;-53
2021/09/25 01:31:29;;;;;;;;;;;;;;;21.85;87.33;101301.59;7283710;19;151904;-53
2021/09/25 01:33:56;;;;;;;;;;;;;;;21.85;87.25;101298.78;7285052;19;152929;-54
2021/09/25 01:36:22;;;;;;;;;;;;;;;21.86;87.25;101292.84;7284206;19;153374;-53
2021/09/25 01:38:49;;;;;;;;;;;;;;;21.85;87.54;101281.91;7286315;19;151871;-54
2021/09/25 01:41:16;;;;;;;;;;;;;;;21.84;87.43;101291.47;7285349;19;152499;-53
2021/09/25 01:43:43;;;;;;;;;;;;;;;21.84;87.57;101292.31;7283802;19;154205;-53
2021/09/25 01:46:10;;;;;;;;;;;;;;;21.85;87.23;101290.34;7290616;19;151996;-53
2021/09/25 01:48:37;;;;;;;;;;;;;;;21.85;87.52;101288.34;7284690;19;153817;-53
2021/09/25 01:51:04;;;;;;;;;;;;;;;21.86;87.15;101301.28;7282890;19;151882;-53
2021/09/25 01:53:31;;;;;;;;;;;;;;;21.87;87.68;101302.94;7283679;19;152175;-53
2021/09/25 01:56:05;;;;;;;;;;;;;;;21.87;87.57;101308.56;7283032;19;154015;-53
2021/09/25 01:58:31;;;;;;;;;;;;;;;21.86;87.19;101301.28;7283422;19;152425;-53
2021/09/25 02:00:58;;;;;;;;;;;;;;;21.85;87.59;101305.22;7280157;19;152706;-53
2021/09/25 02:03:25;;;;;;;;;;;;;;;21.85;87.51;101307.22;7284188;19;153399;-53
2021/09/25 02:05:52;;;;;;;;;;;;;;;21.84;87.46;101308.34;7283314;19;151943;-53
2021/09/25 02:08:19;;;;;;;;;;;;;;;21.86;87.25;101309.72;7290116;19;153159;-53
2021/09/25 02:10:46;;;;;;;;;;;;;;;21.86;87.61;101306.06;7284128;19;151946;-53
2021/09/25 02:13:12;;;;;;;;;;;;;;;21.86;87.57;101311.69;7284701;19;152793;-53
2021/09/25 02:15:39;;;;;;;;;;;;;;;21.86;87.35;101311.69;7281077;19;153675;-53
2021/09/25 02:18:06;;;;;;;;;;;;;;;21.86;87.64;101309.72;7285105;19;151803;-54
2021/09/25 02:20:32;;;;;;;;;;;;;;;21.85;87.82;101310.84;7287671;19;152704;-52
2021/09/25 02:22:59;;;;;;;;;;;;;;;21.86;87.34;101309.72;7288428;19;152585;-53
2021/09/25 02:25:26;;;;;;;;;;;;;;;21.85;87.37;101299.59;7289516;19;152366;-53
2021/09/25 02:27:53;;;;;;;;;;;;;;;21.85;87.58;101299.59;7286257;19;153618;-53
2021/09/25 02:30:20;;;;;;;;;;;;;;;21.86;87.87;101303.25;7292954;19;151509;-54
2021/09/25 02:32:52;;;;;;;;;;;;;;;21.88;87.41;101313.06;7290937;19;152601;-53
2021/09/25 02:35:19;;;;;;;;;;;;;;;21.87;87.45;101300.13;7287266;19;153073;-53
2021/09/25 02:37:46;;;;;;;;;;;;;;;21.87;87.58;101300.13;7289920;19;152529;-54
2021/09/25 02:40:13;;;;;;;;;;;;;;;21.87;87.75;101297.31;7287447;19;153031;-53
2021/09/25 02:42:40;;;;;;;;;;;;;;;21.91;88.07;101294.72;7289621;19;152732;-54
2021/09/25 02:45:08;;;;;;;;;;;;;;;21.90;88.00;101293.03;7288398;19;151869;-54
2021/09/25 02:47:35;;;;;;;;;;;;;;;21.88;87.81;101290.56;7290058;19;151974;-54
2021/09/25 02:50:02;;;;;;;;;;;;;;;21.91;88.05;101289.09;7295195;19;154327;-53
2021/09/25 02:52:29;;;;;;;;;;;;;;;21.88;87.75;101284.09;7289933;19;153351;-53
2021/09/25 02:54:56;;;;;;;;;;;;;;;21.89;87.70;101291.41;7284542;19;153223;-53
2021/09/25 02:57:22;;;;;;;;;;;;;;;21.91;87.85;101297.53;7287982;19;151847;-54
2021/09/25 02:59:49;;;;;;;;;;;;;;;21.89;87.68;101292.22;7287694;19;152393;-53
2021/09/25 03:02:16;;;;;;;;;;;;;;;21.91;87.91;101294.72;7283454;19;153427;-53
2021/09/25 03:04:43;;;;;;;;;;;;;;;21.89;87.86;101289.41;7288770;19;152017;-53
2021/09/25 03:07:10;;;;;;;;;;;;;;;21.94;88.20;101288.53;7290328;19;152857;-53
2021/09/25 03:09:37;;;;;;;;;;;;;;;21.92;87.94;101287.94;7286076;19;153362;-51
2021/09/25 03:12:04;;;;;;;;;;;;;;;21.91;87.76;101284.31;7296472;19;152392;-53
2021/09/25 03:14:31;;;;;;;;;;;;;;;21.91;87.84;101291.91;7285817;19;153819;-53
2021/09/25 03:16:58;;;;;;;;;;;;;;;21.88;87.87;101287.75;7289389;19;151504;-54
2021/09/25 03:19:24;;;;;;;;;;;;;;;21.89;87.83;101280.13;7287803;19;152067;-51
2021/09/25 03:21:51;;;;;;;;;;;;;;;21.88;88.01;101275.66;7288710;19;153863;-53
2021/09/25 03:24:18;;;;;;;;;;;;;;;21.88;88.35;101275.66;7290266;19;151969;-53
2021/09/25 03:26:45;;;;;;;;;;;;;;;21.88;88.08;101278.47;7286592;19;153463;-53
2021/09/25 03:29:11;;;;;;;;;;;;;;;21.89;88.13;101266.06;7289422;19;153418;-53
2021/09/25 03:31:38;;;;;;;;;;;;;;;21.88;88.30;101270.03;7285962;19;151960;-53
2021/09/25 03:34:06;;;;;;;;;;;;;;;21.92;87.94;101271.06;7292774;19;153600;-53
2021/09/25 03:36:33;;;;;;;;;;;;;;;21.89;87.87;101266.91;7289280;19;152044;-54
2021/09/25 03:39:00;;;;;;;;;;;;;;;21.90;88.26;101262.09;7287400;19;153474;-53
2021/09/25 03:41:27;;;;;;;;;;;;;;;21.89;88.15;101266.06;7287454;19;152291;-54
2021/09/25 03:43:53;;;;;;;;;;;;;;;21.89;88.02;101266.06;7289485;19;152037;-53
2021/09/25 03:46:20;;;;;;;;;;;;;;;21.93;88.49;101268.00;7288553;19;152102;-53
2021/09/25 03:48:47;;;;;;;;;;;;;;;21.90;88.40;101273.34;7287673;19;153996;-53
2021/09/25 03:51:14;;;;;;;;;;;;;;;21.89;88.10;101266.06;7288232;19;151817;-53
2021/09/25 03:53:40;;;;;;;;;;;;;;;21.88;88.13;101278.47;7286470;19;152099;-53
2021/09/25 03:56:08;;;;;;;;;;;;;;;21.88;88.21;101275.66;7294741;19;154077;-53
2021/09/25 03:58:35;;;;;;;;;;;;;;;21.86;88.31;101275.13;7287338;19;152861;-53
2021/09/25 04:01:02;;;;;;;;;;;;;;;21.85;88.10;101279.91;7285425;19;153343;-51
2021/09/25 04:03:30;;;;;;;;;;;;;;;21.85;88.46;101279.91;7283635;19;152029;-52
2021/09/25 04:05:58;;;;;;;;;;;;;;;21.85;88.63;101271.47;7288123;19;152791;-51
2021/09/25 04:08:25;;;;;;;;;;;;;;;21.85;88.61;101277.09;7286157;19;153775;-51
2021/09/25 04:10:52;;;;;;;;;;;;;;;21.84;88.23;101272.63;7286389;19;151875;-51
2021/09/25 04:13:18;;;;;;;;;;;;;;;21.86;88.25;101272.31;7288329;19;151812;-51
2021/09/25 04:15:45;;;;;;;;;;;;;;;21.84;88.68;101269.81;7286715;19;153426;-51
2021/09/25 04:18:12;;;;;;;;;;;;;;;21.85;88.63;101273.47;7293725;19;151771;-51
2021/09/25 04:20:39;;;;;;;;;;;;;;;21.84;88.31;101269.81;7287292;19;153385;-52
2021/09/25 04:23:06;;;;;;;;;;;;;;;21.86;88.62;101259.06;7289666;19;151641;-52
2021/09/25 04:25:33;;;;;;;;;;;;;;;21.86;88.58;101275.13;7287262;19;152611;-51
2021/09/25 04:28:04;;;;;;;;;;;;;;;21.85;88.58;101265.03;7286734;19;153961;-52
2021/09/25 04:30:33;;;;;;;;;;;;;;;21.84;88.57;101268.97;7286703;19;152213;-52
2021/09/25 04:33:00;;;;;;;;;;;;;;;21.83;88.61;101268.13;7287118;19;153401;-52
2021/09/25 04:35:27;;;;;;;;;;;;;;;21.83;88.93;101268.13;7283260;19;152704;-52
2021/09/25 04:37:55;;;;;;;;;;;;;;;21.84;88.91;101268.97;7295416;19;151928;-52
2021/09/25 04:40:23;;;;;;;;;;;;;;;21.85;88.87;101270.66;7285953;19;154114;-51
2021/09/25 04:42:50;;;;;;;;;;;;;;;21.84;89.00;101271.78;7286003;19;151457;-52
2021/09/25 04:45:17;;;;;;;;;;;;;;;21.84;88.65;101267.00;7285484;19;153868;-52
2021/09/25 04:47:45;;;;;;;;;;;;;;;21.85;88.58;101267.84;7286406;19;153650;-52
2021/09/25 04:50:13;;;;;;;;;;;;;;;21.84;88.55;101263.34;7287060;19;151819;-52
2021/09/25 04:52:39;;;;;;;;;;;;;;;21.84;88.97;101261.38;7286473;19;151987;-52
2021/09/25 04:55:07;;;;;;;;;;;;;;;21.85;88.54;101267.84;7281836;19;154251;-52
2021/09/25 04:57:34;;;;;;;;;;;;;;;21.85;88.71;101260.22;7284869;19;151914;-51
2021/09/25 05:00:01;;;;;;;;;;;;;;;21.86;88.89;101261.03;7293828;19;151727;-52
2021/09/25 05:02:28;;;;;;;;;;;;;;;21.84;88.98;101263.34;7287731;19;151909;-51
2021/09/25 05:04:55;;;;;;;;;;;;;;;21.85;88.75;101254.59;7285791;19;152907;-52
2021/09/25 05:07:22;;;;;;;;;;;;;;;21.89;88.83;101263.25;7283723;19;153888;-53
2021/09/25 05:09:49;;;;;;;;;;;;;;;21.86;88.56;101250.63;7284875;19;152068;-52
2021/09/25 05:12:15;;;;;;;;;;;;;;;21.88;88.75;101258.78;7285905;19;152686;-52
2021/09/25 05:14:42;;;;;;;;;;;;;;;21.87;88.70;101269.19;7282179;19;152775;-52
2021/09/25 05:17:09;;;;;;;;;;;;;;;21.89;88.63;101260.44;7283823;19;151817;-52
2021/09/25 05:19:36;;;;;;;;;;;;;;;21.91;88.44;101261.78;7285321;19;153718;-52
2021/09/25 05:22:03;;;;;;;;;;;;;;;21.94;88.56;101258.38;7290827;19;152833;-52
2021/09/25 05:24:29;;;;;;;;;;;;;;;21.92;88.44;101255.03;7285176;19;153796;-52
2021/09/25 05:26:56;;;;;;;;;;;;;;;21.92;88.56;101265.44;7283510;19;153454;-52
2021/09/25 05:29:24;;;;;;;;;;;;;;;21.93;88.59;101267.16;7284802;19;151848;-51
2021/09/25 05:31:51;;;;;;;;;;;;;;;21.93;88.60;101262.38;7284003;19;153293;-52
2021/09/25 05:34:17;;;;;;;;;;;;;;;21.92;88.84;101259.81;7282262;19;152589;-52
2021/09/25 05:36:44;;;;;;;;;;;;;;;21.91;88.57;101258.97;7286255;19;151821;-52
2021/09/25 05:39:11;;;;;;;;;;;;;;;21.89;88.41;101254.81;7283183;19;152344;-52
2021/09/25 05:41:38;;;;;;;;;;;;;;;21.89;88.74;101243.56;7283502;19;153390;-52
2021/09/25 05:44:07;;;;;;;;;;;;;;;21.91;88.47;101258.13;7291119;19;152470;-52
2021/09/25 05:46:33;;;;;;;;;;;;;;;21.88;88.57;101259.63;7283904;19;153412;-52
2021/09/25 05:49:00;;;;;;;;;;;;;;;21.94;88.63;101261.19;7287120;19;152200;-52
2021/09/25 05:51:27;;;;;;;;;;;;;;;21.89;88.69;101263.25;7282725;19;152210;-52
2021/09/25 05:53:54;;;;;;;;;;;;;;;21.87;88.56;101262.72;7284674;19;152962;-52
2021/09/25 05:56:21;;;;;;;;;;;;;;;21.86;88.94;101261.88;7289761;19;151551;-52
2021/09/25 05:58:48;;;;;;;;;;;;;;;21.86;88.95;101263.84;7289879;19;153142;-51
2021/09/25 06:01:14;;;;;;;;;;;;;;;21.85;88.57;101257.41;7291528;19;154105;-52
2021/09/25 06:03:41;;;;;;;;;;;;;;;21.84;88.86;101258.56;7292977;19;151900;-52
2021/09/25 06:06:08;;;;;;;;;;;;;;;21.85;88.83;101262.22;7296975;19;152771;-52
2021/09/25 06:08:35;;;;;;;;;;;;;;;21.85;89.13;101259.41;7292846;19;151809;-52
2021/09/25 06:11:02;;;;;;;;;;;;;;;21.84;88.72;101252.09;7292343;19;153978;-52
2021/09/25 06:13:29;;;;;;;;;;;;;;;21.84;88.74;101260.53;7289457;19;152202;-52
2021/09/25 06:15:56;;;;;;;;;;;;;;;21.89;88.98;101257.63;7289267;19;151520;-52
2021/09/25 06:18:23;;;;;;;;;;;;;;;21.87;89.10;101259.91;7289942;19;153651;-51
2021/09/25 06:20:50;;;;;;;;;;;;;;;21.85;88.75;101253.78;7290206;19;153249;-52
2021/09/25 06:23:17;;;;;;;;;;;;;;;21.87;88.82;101257.09;7290773;19;151757;-52
2021/09/25 06:25:43;;;;;;;;;;;;;;;21.84;89.28;101250.13;7290232;19;153057;-52
2021/09/25 06:28:14;;;;;;;;;;;;;;;21.85;89.21;101253.78;7298610;19;154076;-52
2021/09/25 06:30:41;;;;;;;;;;;;;;;21.87;89.18;101254.28;7289204;19;153149;-52
2021/09/25 06:33:09;;;;;;;;;;;;;;;21.87;88.62;101257.09;7288177;19;152663;-52
2021/09/25 06:35:37;;;;;;;;;;;;;;;21.87;88.86;101245.84;7287883;19;151516;-52
2021/09/25 06:38:04;;;;;;;;;;;;;;;21.86;88.75;101249.78;7290649;19;152697;-52
2021/09/25 06:40:30;;;;;;;;;;;;;;;21.84;89.05;101241.69;7290634;19;153796;-51
2021/09/25 06:42:57;;;;;;;;;;;;;;;21.84;88.76;101238.88;7291914;19;152028;-52
2021/09/25 06:45:30;;;;;;;;;;;;;;;21.86;88.74;101245.00;7290010;19;153234;-52
2021/09/25 06:47:57;;;;;;;;;;;;;;;21.88;88.96;101253.97;7297359;19;153290;-51
2021/09/25 06:50:24;;;;;;;;;;;;;;;21.85;88.87;101254.59;7289673;19;153603;-51
2021/09/25 06:52:51;;;;;;;;;;;;;;;21.85;89.07;101248.16;7287906;19;154153;-52
2021/09/25 06:55:18;;;;;;;;;;;;;;;21.84;89.03;101244.50;7288045;19;151722;-51
2021/09/25 06:57:45;;;;;;;;;;;;;;;21.85;88.91;101256.59;7286873;19;153161;-52
2021/09/25 07:00:12;;;;;;;;;;;;;;;21.86;89.18;101255.41;7287335;19;153288;-52
2021/09/25 07:02:39;;;;;;;;;;;;;;;21.86;89.17;101252.59;7288775;19;151807;-52
2021/09/25 07:05:07;;;;;;;;;;;;;;;21.86;89.03;101249.78;7290398;19;153521;-51
2021/09/25 07:07:34;;;;;;;;;;;;;;;21.87;88.94;101262.72;7286024;19;154136;-51
2021/09/25 07:10:02;;;;;;;;;;;;;;;21.85;89.34;101257.41;7297390;19;151786;-52
2021/09/25 07:12:29;;;;;;;;;;;;;;;21.85;89.41;101254.59;7287406;19;153310;-52
2021/09/25 07:14:56;;;;;;;;;;;;;;;21.85;89.28;101257.41;7288234;19;151892;-52
2021/09/25 07:17:24;;;;;;;;;;;;;;;21.86;89.06;101252.59;7287744;19;153369;-51
2021/09/25 07:19:52;;;;;;;;;;;;;;;21.86;88.88;101256.25;7289261;19;153322;-52
2021/09/25 07:22:19;;;;;;;;;;;;;;;21.87;88.97;101257.09;7288471;19;151847;-52
2021/09/25 07:24:46;;;;;;;;;;;;;;;21.86;88.77;101253.44;7287910;19;152233;-52
2021/09/25 07:27:13;;;;;;;;;;;;;;;21.86;89.19;101256.25;7287281;19;153946;-52
2021/09/25 07:29:39;;;;;;;;;;;;;;;21.86;89.14;101249.78;7289474;19;153590;-52
2021/09/25 07:32:06;;;;;;;;;;;;;;;21.85;88.79;101250.97;7294648;19;152682;-53
2021/09/25 07:34:33;;;;;;;;;;;;;;;21.84;89.29;101250.13;7289735;19;151572;-51
2021/09/25 07:37:00;;;;;;;;;;;;;;;21.91;88.86;101252.50;7285526;19;153030;-53
2021/09/25 07:39:27;;;;;;;;;;;;;;;21.91;88.92;101258.97;7286751;19;153272;-52
2021/09/25 07:41:54;;;;;;;;;;;;;;;21.88;88.91;101253.16;7289070;19;151488;-52
2021/09/25 07:44:21;;;;;;;;;;;;;;;21.87;89.35;101255.13;7288246;19;152749;-52
2021/09/25 07:46:48;;;;;;;;;;;;;;;21.86;89.52;101255.41;7288005;19;153456;-51
2021/09/25 07:49:15;;;;;;;;;;;;;;;21.87;89.48;101268.34;7289350;19;151762;-51
2021/09/25 07:51:42;;;;;;;;;;;;;;;21.93;89.07;101275.59;7287661;19;152001;-52
2021/09/25 07:54:08;;;;;;;;;;;;;;;21.93;89.32;101286.84;7295157;19;152666;-52
2021/09/25 07:56:35;;;;;;;;;;;;;;;21.94;88.69;101291.34;7283746;19;152361;-52
2021/09/25 07:59:03;;;;;;;;;;;;;;;21.79;88.00;101286.78;7282852;19;153864;-52
2021/09/25 08:01:33;;;;;;;;;;;;;;;21.72;88.16;101289.97;7288582;19;151789;-53
2021/09/25 08:04:00;;;;;;;;;;;;;;;21.73;88.46;101297.28;7287696;19;153499;-52
2021/09/25 08:06:28;;;;;;;;;;;;;;;21.71;87.44;101293.94;7284369;19;153263;-52
2021/09/25 08:08:54;;;;;;;;;;;;;;;21.69;87.17;101301.03;7288737;19;151759;-53
2021/09/25 08:11:21;;;;;;;;;;;;;;;21.63;87.45;101299.44;7288316;19;152820;-52
2021/09/25 08:13:48;;;;;;;;;;;;;;;21.56;88.08;101297.03;7285801;19;152547;-52
2021/09/25 08:16:15;;;;;;;;;;;;;;;21.48;88.70;101296.91;7291938;19;152138;-52
2021/09/25 08:18:42;;;;;;;;;;;;;;;21.37;89.31;101303.81;7286184;19;153373;-54
2021/09/25 08:21:09;;;;;;;;;;;;;;;21.40;89.10;101294.75;7285554;19;151653;-52
2021/09/25 08:23:36;;;;;;;;;;;;;;;21.38;89.64;101309.13;7286467;19;152593;-52
2021/09/25 08:26:03;;;;;;;;;;;;;;;21.28;90.02;101303.66;7287371;19;152415;-52
2021/09/25 08:28:30;;;;;;;;;;;;;;;21.32;89.97;101309.50;7286845;19;151896;-52
2021/09/25 08:30:57;;;;;;;;;;;;;;;21.28;90.21;101307.31;7287411;19;153147;-52
2021/09/25 08:33:23;;;;;;;;;;;;;;;21.29;90.05;101320.25;7285473;19;152283;-52
2021/09/25 08:35:50;;;;;;;;;;;;;;;21.22;90.60;101305.72;7284586;19;151816;-52
2021/09/25 08:38:17;;;;;;;;;;;;;;;21.26;90.20;101315.19;7292436;19;151723;-52
2021/09/25 08:40:44;;;;;;;;;;;;;;;21.28;90.18;101314.91;7288027;19;152105;-52
2021/09/25 08:43:11;;;;;;;;;;;;;;;21.30;90.33;101321.06;7288393;19;152581;-52
2021/09/25 08:45:38;;;;;;;;;;;;;;;21.29;90.39;101308.16;7285798;19;153210;-52
2021/09/25 08:48:05;;;;;;;;;;;;;;;21.32;90.09;101318.78;7285409;19;152170;-52
2021/09/25 08:50:32;;;;;;;;;;;;;;;21.33;90.04;101319.63;7286225;19;151606;-52
2021/09/25 08:52:59;;;;;;;;;;;;;;;21.34;90.35;101324.94;7284578;19;153766;-52
2021/09/25 08:55:26;;;;;;;;;;;;;;;21.39;90.16;101316.44;7284777;19;152207;-52
2021/09/25 08:57:53;;;;;;;;;;;;;;;21.41;89.58;101313.28;7288611;19;152708;-51
2021/09/25 09:00:22;;;;;;;;;;;;;;;21.42;89.57;101312.16;7286050;19;152416;-52
2021/09/25 09:02:50;;;;;;;;;;;;;;;21.43;89.45;101311.03;7284296;19;153651;-52
2021/09/25 09:05:20;;;;;;;;;;;;;;;21.46;89.17;101311.25;7283547;19;154674;-52
2021/09/25 09:07:47;;;;;;;;;;;;;;;21.47;88.50;101312.09;7286708;19;151781;-52
2021/09/25 09:10:13;;;;;;;;;;;;;;;21.48;88.54;101310.94;7283151;19;153421;-52
2021/09/25 09:12:40;;;;;;;;;;;;;;;21.50;88.37;101303.03;7285651;19;153025;-53
2021/09/25 09:15:08;;;;;;;;;;;;;;;21.50;88.50;101309.50;7284751;19;151667;-52
2021/09/25 09:17:35;;;;;;;;;;;;;;;21.51;88.46;101311.16;7280897;19;153183;-52
2021/09/25 09:20:06;;;;;;;;;;;;;;;21.49;88.47;101307.81;7291742;19;152740;-52
2021/09/25 09:22:33;;;;;;;;;;;;;;;21.52;88.12;101310.03;7287014;19;153344;-52
2021/09/25 09:25:01;;;;;;;;;;;;;;;21.55;88.00;101305.75;7283553;19;153719;-54
2021/09/25 09:27:28;;;;;;;;;;;;;;;21.53;87.88;101305.25;7284156;19;152041;-52
2021/09/25 09:29:58;;;;;;;;;;;;;;;21.54;87.71;101304.09;7280729;19;154076;-52
2021/09/25 09:32:25;;;;;;;;;;;;;;;21.53;88.67;101296.81;7280984;19;154138;-52
2021/09/25 09:34:51;;;;;;;;;;;;;;;21.50;88.94;101292.63;7283592;19;151646;-53
2021/09/25 09:37:19;;;;;;;;;;;;;;;21.48;88.32;101300.53;7284062;19;152463;-58
2021/09/25 09:39:49;;;;;;;;;;;;;;;21.45;88.28;101312.38;7281896;19;153271;-52
2021/09/25 09:42:20;;;;;;;;;;;;;;;21.46;88.62;101308.44;7292242;19;152238;-52
2021/09/25 09:44:50;;;;;;;;;;;;;;;21.47;88.21;101296.06;7283432;19;153628;-52
2021/09/25 09:47:20;;;;;;;;;;;;;;;21.50;87.98;101297.41;7282581;19;151947;-53
2021/09/25 09:49:51;;;;;;;;;;;;;;;21.53;87.92;101294.00;7282192;19;153608;-52
2021/09/25 09:52:18;;;;;;;;;;;;;;;21.53;87.92;101296.81;7284947;19;153222;-51
2021/09/25 09:54:46;;;;;;;;;;;;;;;21.55;87.49;101297.31;7283685;19;152206;-51
2021/09/25 09:57:17;;;;;;;;;;;;;;;21.56;87.99;101296.19;7279076;19;152760;-53
2021/09/25 09:59:47;;;;;;;;;;;;;;;21.56;87.67;101299.84;7283003;19;152411;-52
2021/09/25 10:02:15;;;;;;;;;;;;;;;21.56;87.88;101293.38;7284721;19;152071;-52
2021/09/25 10:04:42;;;;;;;;;;;;;;;21.58;87.77;101291.91;7289763;19;153502;-51
2021/09/25 10:07:09;;;;;;;;;;;;;;;21.59;87.58;101295.56;7281837;19;152035;-52
2021/09/25 10:09:37;;;;;;;;;;;;;;;21.58;87.94;101289.09;7282896;19;153481;-53
2021/09/25 10:12:06;;;;;;;;;;;;;;;21.59;88.22;101296.41;7282451;19;153362;-52
2021/09/25 10:14:36;;;;;;;;;;;;;;;21.60;87.55;101286.00;7277810;19;152075;-52
2021/09/25 10:17:05;;;;;;;;;;;;;;;21.61;87.62;101293.28;7275241;19;153278;-56
2021/09/25 10:19:33;;;;;;;;;;;;;;;21.61;87.62;101296.94;7281137;19;153054;-52
2021/09/25 10:22:02;;;;;;;;;;;;;;;21.60;87.89;101280.38;7280906;19;152014;-53
2021/09/25 10:24:33;;;;;;;;;;;;;;;21.60;87.51;101281.22;7281595;19;152646;-52
2021/09/25 10:27:01;;;;;;;;;;;;;;;21.62;87.67;101283.72;7290378;19;153764;-52
2021/09/25 10:29:28;;;;;;;;;;;;;;;21.61;87.90;101287.66;7282160;19;152728;-53
2021/09/25 10:31:58;;;;;;;;;;;;;;;21.61;87.51;101271.63;7282115;19;153218;-52
2021/09/25 10:34:27;;;;;;;;;;;;;;;21.63;87.82;101280.56;7281344;19;151945;-52
2021/09/25 10:36:55;;;;;;;;;;;;;;;21.68;87.94;101288.09;7280890;19;153927;-52
2021/09/25 10:39:26;;;;;;;;;;;;;;;21.75;87.91;101288.56;7281861;19;154248;-53
2021/09/25 10:41:58;;;;;;;;;;;;;;;21.74;87.68;101293.34;7285334;19;152066;-52
2021/09/25 10:44:26;;;;;;;;;;;;;;;21.71;87.95;101291.13;7287627;19;153070;-52
2021/09/25 10:47:03;;;;;;;;;;;;;;;21.70;87.87;101286.66;7286540;19;153228;-52
2021/09/25 10:49:33;;;;;;;;;;;;;;;21.69;87.80;101284.97;7295373;19;151858;-52
2021/09/25 10:52:00;;;;;;;;;;;;;;;21.68;87.84;101283.31;7286557;19;153904;-52
2021/09/25 10:54:27;;;;;;;;;;;;;;;21.69;87.33;101279.34;7288154;19;151756;-52
2021/09/25 10:56:57;;;;;;;;;;;;;;;21.67;87.45;101276.00;7287694;19;153144;-52
2021/09/25 10:59:24;;;;;;;;;;;;;;;21.67;87.40;101278.81;7286337;19;154349;-52
2021/09/25 11:01:53;;;;;;;;;;;;;;;21.66;87.71;101268.75;7286570;19;151804;-52
2021/09/25 11:04:21;;;;;;;;;;;;;;;21.66;87.43;101274.38;7285891;19;153169;-52
2021/09/25 11:06:52;;;;;;;;;;;;;;;21.68;86.97;101276.84;7286600;19;153629;-52
2021/09/25 11:09:22;;;;;;;;;;;;;;;21.67;87.27;101275.16;7294127;19;152047;-52
2021/09/25 11:11:50;;;;;;;;;;;;;;;21.67;87.34;101273.19;7286541;19;153000;-52
2021/09/25 11:14:24;;;;;;;;;;;;;;;21.66;87.30;101280.00;7286272;19;151952;-52
2021/09/25 11:16:53;;;;;;;;;;;;;;;21.63;87.44;101272.16;7284889;19;153282;-53
2021/09/25 11:19:29;;;;;;;;;;;;;;;21.65;86.87;101264.25;7281344;19;154152;-53
2021/09/25 11:22:00;;;;;;;;;;;;;;;21.65;87.13;101267.06;7286670;19;151832;-52
2021/09/25 11:24:30;;;;;;;;;;;;;;;21.63;87.57;101258.09;7286981;19;152681;-52
2021/09/25 11:26:57;;;;;;;;;;;;;;;21.65;87.23;101271.84;7287136;19;154190;-53
2021/09/25 11:29:24;;;;;;;;;;;;;;;21.67;87.02;101275.16;7286801;19;151869;-53
2021/09/25 11:32:04;;;;;;;;;;;;;;;21.67;87.08;101277.97;7292418;19;153781;-53
2021/09/25 11:34:31;;;;;;;;;;;;;;;21.66;87.06;101273.53;7287457;19;152261;-53
2021/09/25 11:36:59;;;;;;;;;;;;;;;21.67;86.97;101275.16;7285432;19;152826;-52
2021/09/25 11:39:29;;;;;;;;;;;;;;;21.66;86.95;101273.53;7284354;19;152189;-52
2021/09/25 11:42:09;;;;;;;;;;;;;;;21.65;86.73;101272.69;7285847;19;151615;-53
2021/09/25 11:44:39;;;;;;;;;;;;;;;21.66;86.54;101267.91;7287552;19;152597;-53
2021/09/25 11:47:06;;;;;;;;;;;;;;;21.65;86.69;101267.06;7285954;19;153260;-52
2021/09/25 11:49:34;;;;;;;;;;;;;;;21.63;86.63;101263.72;7286345;19;151940;-52
2021/09/25 11:52:00;;;;;;;;;;;;;;;21.65;86.98;101267.06;7285205;19;152626;-52
2021/09/25 11:54:28;;;;;;;;;;;;;;;21.64;87.00;101259.75;7290687;19;153185;-52
2021/09/25 11:56:54;;;;;;;;;;;;;;;21.65;86.64;101258.63;7283997;19;153461;-53
2021/09/25 11:59:23;;;;;;;;;;;;;;;21.64;86.72;101254.13;7283764;19;153802;-53
2021/09/25 12:01:50;;;;;;;;;;;;;;;21.64;86.67;101253.28;7284322;19;152013;-53
2021/09/25 12:04:17;;;;;;;;;;;;;;;21.63;86.89;101252.47;7286681;19;153805;-52
2021/09/25 12:06:47;;;;;;;;;;;;;;;21.63;86.89;101243.19;7284391;19;154012;-53
2021/09/25 12:09:13;;;;;;;;;;;;;;;21.63;86.50;101241.22;7286004;19;152078;-53
2021/09/25 12:11:40;;;;;;;;;;;;;;;21.61;86.76;101232.25;7287275;19;152563;-53
2021/09/25 12:14:07;;;;;;;;;;;;;;;21.59;87.00;101233.69;7285592;19;154126;-53
2021/09/25 12:16:34;;;;;;;;;;;;;;;21.62;86.22;101235.91;7294454;19;152683;-53
2021/09/25 12:19:01;;;;;;;;;;;;;;;21.62;86.72;101233.91;7281066;19;153319;-52
2021/09/25 12:21:28;;;;;;;;;;;;;;;21.63;86.31;101224.34;7286592;19;151831;-51
2021/09/25 12:23:57;;;;;;;;;;;;;;;21.63;86.53;101226.31;7286765;19;152042;-53
2021/09/25 12:26:25;;;;;;;;;;;;;;;21.63;86.29;101223.50;7286069;19;153768;-53
2021/09/25 12:28:54;;;;;;;;;;;;;;;21.62;86.58;101211.41;7286238;19;152250;-53